sensor_id;sensor_type;location;lat;lon;timestamp;pressure;altitude;pressure_sealevel;temperature;humidity
65553;BME280;52465;51.560;14.368;2023-07-16T00:01:56;99419.22;;;27.53;49.85
65553;BME280;52465;51.560;14.368;2023-07-16T00:04:22;99503.53;;;28.05;49.76
65553;BME280;52465;51.560;14.368;2023-07-16T00:06:48;99473.63;;;27.87;49.46
65553;BME280;52465;51.560;14.368;2023-07-16T00:09:13;99503.03;;;28.03;50.02
65553;BME280;52465;51.560;14.368;2023-07-16T00:11:39;99484.84;;;27.94;49.86
65553;BME280;52465;51.560;14.368;2023-07-16T00:14:04;99482.88;;;28.00;49.44
65553;BME280;52465;51.560;14.368;2023-07-16T00:16:29;99486.97;;;27.98;49.49
65553;BME280;52465;51.560;14.368;2023-07-16T00:18:55;99503.91;;;27.98;50.09
65553;BME280;52465;51.560;14.368;2023-07-16T00:23:30;99537.22;;;28.02;49.93
65553;BME280;52465;51.560;14.368;2023-07-16T00:25:56;99547.97;;;28.02;50.15
65553;BME280;52465;51.560;14.368;2023-07-16T00:28:22;99559.03;;;28.01;49.66
65553;BME280;52465;51.560;14.368;2023-07-16T00:30:47;99578.78;;;27.91;50.20
65553;BME280;52465;51.560;14.368;2023-07-16T00:33:12;99583.59;;;27.94;50.15
65553;BME280;52465;51.560;14.368;2023-07-16T00:35:38;99586.28;;;27.94;50.26
65553;BME280;52465;51.560;14.368;2023-07-16T00:38:03;99602.16;;;27.96;50.14
65553;BME280;52465;51.560;14.368;2023-07-16T00:40:29;99600.25;;;27.96;50.26
65553;BME280;52465;51.560;14.368;2023-07-16T00:42:55;99601.34;;;27.95;49.81
65553;BME280;52465;51.560;14.368;2023-07-16T00:47:26;99593.28;;;27.95;50.27
65553;BME280;52465;51.560;14.368;2023-07-16T00:49:51;99592.00;;;27.87;49.82
65553;BME280;52465;51.560;14.368;2023-07-16T00:52:18;99602.75;;;27.87;50.30
65553;BME280;52465;51.560;14.368;2023-07-16T00:54:46;99632.59;;;27.91;49.88
65553;BME280;52465;51.560;14.368;2023-07-16T00:57:12;99753.72;;;27.86;49.98
65553;BME280;52465;51.560;14.368;2023-07-16T01:05:16;99770.94;;;27.85;50.32
65553;BME280;52465;51.560;14.368;2023-07-16T01:07:45;99781.13;;;27.88;50.50
65553;BME280;52465;51.560;14.368;2023-07-16T01:16:20;99786.31;;;27.79;50.27
65553;BME280;52465;51.560;14.368;2023-07-16T01:18:45;99789.25;;;27.83;50.39
65553;BME280;52465;51.560;14.368;2023-07-16T01:21:10;99793.31;;;27.80;50.16
65553;BME280;52465;51.560;14.368;2023-07-16T01:23:48;99776.75;;;27.63;49.98
65553;BME280;52465;51.560;14.368;2023-07-16T01:28:31;99815.13;;;27.79;50.60
65553;BME280;52465;51.560;14.368;2023-07-16T01:32:54;99822.38;;;27.78;50.20
65553;BME280;52465;51.560;14.368;2023-07-16T01:37:23;99837.69;;;27.78;50.58
65553;BME280;52465;51.560;14.368;2023-07-16T01:39:49;99814.94;;;27.60;50.12
65553;BME280;52465;51.560;14.368;2023-07-16T01:42:14;99833.44;;;27.72;50.24
65553;BME280;52465;51.560;14.368;2023-07-16T01:44:39;99798.81;;;27.60;50.42
65553;BME280;52465;51.560;14.368;2023-07-16T01:47:08;99806.53;;;27.72;50.63
65553;BME280;52465;51.560;14.368;2023-07-16T01:49:34;99798.47;;;27.66;50.58
65553;BME280;52465;51.560;14.368;2023-07-16T01:52:00;99807.88;;;27.69;50.73
65553;BME280;52465;51.560;14.368;2023-07-16T01:54:29;99803.59;;;27.68;50.75
65553;BME280;52465;51.560;14.368;2023-07-16T01:56:55;99799.31;;;27.67;50.85
65553;BME280;52465;51.560;14.368;2023-07-16T01:59:20;99804.69;;;27.67;51.01
65553;BME280;52465;51.560;14.368;2023-07-16T02:01:45;99788.59;;;27.62;50.38
65553;BME280;52465;51.560;14.368;2023-07-16T02:04:11;99788.56;;;27.67;50.85
65553;BME280;52465;51.560;14.368;2023-07-16T02:06:36;99786.91;;;27.66;50.95
65553;BME280;52465;51.560;14.368;2023-07-16T02:09:02;99780.28;;;27.58;50.99
65553;BME280;52465;51.560;14.368;2023-07-16T02:11:28;99796.88;;;27.65;50.75
65553;BME280;52465;51.560;14.368;2023-07-16T02:13:54;99782.94;;;27.63;51.16
65553;BME280;52465;51.560;14.368;2023-07-16T02:16:19;99787.25;;;27.59;51.06
65553;BME280;52465;51.560;14.368;2023-07-16T02:18:45;99795.56;;;27.63;50.87
65553;BME280;52465;51.560;14.368;2023-07-16T02:21:10;99793.69;;;27.63;50.55
65553;BME280;52465;51.560;14.368;2023-07-16T02:23:35;99794.78;;;27.62;50.88
65553;BME280;52465;51.560;14.368;2023-07-16T02:26:01;99800.16;;;27.62;50.61
65553;BME280;52465;51.560;14.368;2023-07-16T02:28:27;99801.25;;;27.61;51.01
65553;BME280;52465;51.560;14.368;2023-07-16T02:30:53;99802.28;;;27.60;51.08
65553;BME280;52465;51.560;14.368;2023-07-16T02:33:18;99807.69;;;27.60;50.59
65553;BME280;52465;51.560;14.368;2023-07-16T02:35:46;99794.81;;;27.57;50.67
65553;BME280;52465;51.560;14.368;2023-07-16T02:38:14;99782.44;;;27.56;50.94
65553;BME280;52465;51.560;14.368;2023-07-16T02:40:42;99776.28;;;27.56;51.01
65553;BME280;52465;51.560;14.368;2023-07-16T02:43:08;99777.88;;;27.57;51.10
65553;BME280;52465;51.560;14.368;2023-07-16T02:45:34;99785.13;;;27.56;50.72
65553;BME280;52465;51.560;14.368;2023-07-16T02:47:59;99787.03;;;27.56;51.11
65553;BME280;52465;51.560;14.368;2023-07-16T02:50:25;99788.88;;;27.55;51.20
65553;BME280;52465;51.560;14.368;2023-07-16T02:52:50;99780.81;;;27.55;51.24
65553;BME280;52465;51.560;14.368;2023-07-16T02:55:15;99778.41;;;27.54;50.82
65553;BME280;52465;51.560;14.368;2023-07-16T02:57:41;99767.66;;;27.54;50.77
65553;BME280;52465;51.560;14.368;2023-07-16T03:00:07;99749.16;;;27.47;50.72
65553;BME280;52465;51.560;14.368;2023-07-16T03:02:33;99798.31;;;27.53;50.80
65553;BME280;52465;51.560;14.368;2023-07-16T03:04:59;99826.59;;;27.50;50.89
65553;BME280;52465;51.560;14.368;2023-07-16T03:07:24;99842.75;;;27.45;50.94
65553;BME280;52465;51.560;14.368;2023-07-16T03:09:49;99861.25;;;27.52;51.34
65553;BME280;52465;51.560;14.368;2023-07-16T03:12:15;99874.72;;;27.52;50.92
65553;BME280;52465;51.560;14.368;2023-07-16T03:14:40;99867.44;;;27.52;50.76
65553;BME280;52465;51.560;14.368;2023-07-16T03:17:05;99874.44;;;27.48;51.03
65553;BME280;52465;51.560;14.368;2023-07-16T03:19:31;99880.38;;;27.50;51.20
65553;BME280;52465;51.560;14.368;2023-07-16T03:21:57;99895.66;;;27.50;50.95
65553;BME280;52465;51.560;14.368;2023-07-16T03:24:22;99905.63;;;27.49;51.33
65553;BME280;52465;51.560;14.368;2023-07-16T03:26:48;99905.41;;;27.46;51.18
65553;BME280;52465;51.560;14.368;2023-07-16T03:29:13;99912.09;;;27.48;51.06
65553;BME280;52465;51.560;14.368;2023-07-16T03:31:38;99900.81;;;27.46;51.01
65553;BME280;52465;51.560;14.368;2023-07-16T03:34:04;99915.06;;;27.47;50.85
65553;BME280;52465;51.560;14.368;2023-07-16T03:38:37;99925.81;;;27.47;51.25
65553;BME280;52465;51.560;14.368;2023-07-16T03:41:02;99919.09;;;27.44;51.30
65553;BME280;52465;51.560;14.368;2023-07-16T03:45:39;99933.63;;;27.43;51.18
65553;BME280;52465;51.560;14.368;2023-07-16T03:48:05;99936.09;;;27.34;51.37
65553;BME280;52465;51.560;14.368;2023-07-16T03:50:30;99937.47;;;27.22;51.22
65553;BME280;52465;51.560;14.368;2023-07-16T03:52:56;99966.97;;;27.37;51.33
65553;BME280;52465;51.560;14.368;2023-07-16T04:03:09;99986.38;;;27.34;51.31
65553;BME280;52465;51.560;14.368;2023-07-16T04:05:34;99991.19;;;27.32;50.86
65553;BME280;52465;51.560;14.368;2023-07-16T04:08:00;99984.50;;;27.24;51.21
65553;BME280;52465;51.560;14.368;2023-07-16T04:10:25;99998.47;;;27.26;51.39
65553;BME280;52465;51.560;14.368;2023-07-16T04:12:51;99982.63;;;27.25;51.31
65553;BME280;52465;51.560;14.368;2023-07-16T04:15:16;99954.69;;;27.10;50.88
65553;BME280;52465;51.560;14.368;2023-07-16T04:17:42;99967.56;;;27.24;51.51
65553;BME280;52465;51.560;14.368;2023-07-16T04:20:10;99971.09;;;27.19;51.18
65553;BME280;52465;51.560;14.368;2023-07-16T04:22:35;99973.25;;;27.17;51.41
65553;BME280;52465;51.560;14.368;2023-07-16T04:25:02;99989.63;;;27.21;51.53
65553;BME280;52465;51.560;14.368;2023-07-16T04:27:27;99975.66;;;27.19;51.25
65553;BME280;52465;51.560;14.368;2023-07-16T04:29:53;99974.28;;;27.21;51.63
65553;BME280;52465;51.560;14.368;2023-07-16T04:32:18;99945.84;;;27.10;51.60
65553;BME280;52465;51.560;14.368;2023-07-16T04:38:44;99918.94;;;27.20;51.79
65553;BME280;52465;51.560;14.368;2023-07-16T04:41:09;99903.09;;;27.19;51.47
65553;BME280;52465;51.560;14.368;2023-07-16T04:43:35;99895.03;;;27.19;51.83
65553;BME280;52465;51.560;14.368;2023-07-16T04:50:14;99893.97;;;27.14;51.64
65553;BME280;52465;51.560;14.368;2023-07-16T04:52:39;99907.41;;;27.14;51.44
65553;BME280;52465;51.560;14.368;2023-07-16T04:55:05;99907.41;;;27.09;51.52
65553;BME280;52465;51.560;14.368;2023-07-16T04:57:32;99927.56;;;27.12;51.96
65553;BME280;52465;51.560;14.368;2023-07-16T05:04:02;99873.03;;;27.01;51.97
65553;BME280;52465;51.560;14.368;2023-07-16T05:10:00;99910.09;;;27.09;51.85
65553;BME280;52465;51.560;14.368;2023-07-16T05:12:26;99916.56;;;27.08;51.44
65553;BME280;52465;51.560;14.368;2023-07-16T05:16:56;99918.72;;;27.06;51.50
65553;BME280;52465;51.560;14.368;2023-07-16T05:19:22;99926.78;;;27.06;51.83
65553;BME280;52465;51.560;14.368;2023-07-16T05:25:38;99925.97;;;27.01;51.90
65553;BME280;52465;51.560;14.368;2023-07-16T05:28:04;99944.75;;;27.06;51.61
65553;BME280;52465;51.560;14.368;2023-07-16T05:30:29;99875.00;;;26.65;51.86
65553;BME280;52465;51.560;14.368;2023-07-16T05:32:54;99929.97;;;27.03;52.09
65553;BME280;52465;51.560;14.368;2023-07-16T05:35:20;99938.03;;;27.03;51.83
65553;BME280;52465;51.560;14.368;2023-07-16T05:37:45;99935.34;;;27.03;52.18
65553;BME280;52465;51.560;14.368;2023-07-16T05:40:11;99921.91;;;27.03;51.86
65553;BME280;52465;51.560;14.368;2023-07-16T05:46:21;99921.41;;;27.01;52.07
65553;BME280;52465;51.560;14.368;2023-07-16T05:48:46;99927.31;;;26.98;52.39
65553;BME280;52465;51.560;14.368;2023-07-16T05:53:23;99920.09;;;26.88;52.46
65553;BME280;52465;51.560;14.368;2023-07-16T05:55:48;99945.31;;;26.93;52.40
65553;BME280;52465;51.560;14.368;2023-07-16T05:58:14;99959.03;;;26.86;52.35
65553;BME280;52465;51.560;14.368;2023-07-16T06:00:39;99958.22;;;26.90;52.26
65553;BME280;52465;51.560;14.368;2023-07-16T06:03:04;99962.22;;;26.93;52.33
65553;BME280;52465;51.560;14.368;2023-07-16T06:05:30;99966.00;;;26.92;52.42
65553;BME280;52465;51.560;14.368;2023-07-16T06:07:55;99974.06;;;26.92;52.89
65553;BME280;52465;51.560;14.368;2023-07-16T06:18:11;99976.75;;;26.87;52.27
65553;BME280;52465;51.560;14.368;2023-07-16T06:25:57;100068.91;;;26.93;52.74
65553;BME280;52465;51.560;14.368;2023-07-16T06:28:22;100061.91;;;26.92;52.54
65553;BME280;52465;51.560;14.368;2023-07-16T06:30:49;100047.69;;;26.76;52.35
65553;BME280;52465;51.560;14.368;2023-07-16T06:33:14;100066.22;;;26.87;52.52
65553;BME280;52465;51.560;14.368;2023-07-16T06:35:40;100070.78;;;26.82;52.61
65553;BME280;52465;51.560;14.368;2023-07-16T06:38:05;100082.59;;;26.86;52.96
65553;BME280;52465;51.560;14.368;2023-07-16T06:44:27;100075.34;;;26.86;53.03
65553;BME280;52465;51.560;14.368;2023-07-16T06:46:53;100083.41;;;26.86;52.64
65553;BME280;52465;51.560;14.368;2023-07-16T06:49:18;100075.63;;;26.85;52.61
65553;BME280;52465;51.560;14.368;2023-07-16T06:53:53;100073.47;;;26.87;52.93
65553;BME280;52465;51.560;14.368;2023-07-16T06:56:19;100079.63;;;26.87;52.62
65553;BME280;52465;51.560;14.368;2023-07-16T06:58:44;100084.47;;;26.85;53.06
65553;BME280;52465;51.560;14.368;2023-07-16T07:01:09;100091.47;;;26.86;53.16
65553;BME280;52465;51.560;14.368;2023-07-16T07:03:35;100085.28;;;26.86;53.10
65553;BME280;52465;51.560;14.368;2023-07-16T07:06:02;100080.72;;;26.86;53.09
65553;BME280;52465;51.560;14.368;2023-07-16T07:08:27;100077.75;;;26.88;52.95
65553;BME280;52465;51.560;14.368;2023-07-16T07:10:53;100080.72;;;26.86;53.12
65553;BME280;52465;51.560;14.368;2023-07-16T07:13:21;100064.34;;;26.78;53.08
65553;BME280;52465;51.560;14.368;2023-07-16T07:17:55;100067.03;;;26.83;53.13
65553;BME280;52465;51.560;14.368;2023-07-16T07:20:20;100073.47;;;26.87;52.76
65553;BME280;52465;51.560;14.368;2023-07-16T07:22:46;100042.06;;;26.67;52.72
65553;BME280;52465;51.560;14.368;2023-07-16T07:25:11;100066.22;;;26.87;52.90
65553;BME280;52465;51.560;14.368;2023-07-16T07:29:41;100075.63;;;26.80;52.65
65553;BME280;52465;51.560;14.368;2023-07-16T07:32:07;100079.63;;;26.87;53.30
65553;BME280;52465;51.560;14.368;2023-07-16T07:34:33;100038.00;;;26.64;53.06
65553;BME280;52465;51.560;14.368;2023-07-16T07:36:58;100077.75;;;26.88;52.93
65553;BME280;52465;51.560;14.368;2023-07-16T07:57:35;100078.56;;;26.94;52.82
65553;BME280;52465;51.560;14.368;2023-07-16T08:00:01;100092.81;;;26.94;52.84
65553;BME280;52465;51.560;14.368;2023-07-16T08:02:26;100068.38;;;26.85;52.98
65553;BME280;52465;51.560;14.368;2023-07-16T08:04:52;100089.31;;;26.94;52.76
65553;BME280;52465;51.560;14.368;2023-07-16T08:07:18;100092.00;;;26.94;52.91
65553;BME280;52465;51.560;14.368;2023-07-16T08:11:49;100096.84;;;26.97;52.55
65553;BME280;52465;51.560;14.368;2023-07-16T08:14:14;100084.75;;;26.89;52.63
65553;BME280;52465;51.560;14.368;2023-07-16T08:16:40;100093.34;;;26.91;52.90
65553;BME280;52465;51.560;14.368;2023-07-16T08:19:05;100107.31;;;26.98;52.57
65553;BME280;52465;51.560;14.368;2023-07-16T08:21:32;100089.88;;;26.90;52.49
65553;BME280;52465;51.560;14.368;2023-07-16T08:23:57;100120.75;;;27.03;52.38
65553;BME280;52465;51.560;14.368;2023-07-16T08:26:23;100120.47;;;27.05;52.34
65553;BME280;52465;51.560;14.368;2023-07-16T08:28:49;100128.31;;;27.06;52.73
65553;BME280;52465;51.560;14.368;2023-07-16T08:31:14;100129.13;;;27.07;52.37
65553;BME280;52465;51.560;14.368;2023-07-16T08:33:40;100132.34;;;27.09;52.45
65553;BME280;52465;51.560;14.368;2023-07-16T08:36:05;100117.25;;;27.03;52.22
65553;BME280;52465;51.560;14.368;2023-07-16T08:38:31;100115.69;;;27.07;52.31
65553;BME280;52465;51.560;14.368;2023-07-16T08:40:57;100122.94;;;27.11;52.19
65553;BME280;52465;51.560;14.368;2023-07-16T08:43:22;100126.16;;;27.13;52.28
65553;BME280;52465;51.560;14.368;2023-07-16T08:45:49;100131.25;;;27.15;52.26
65553;BME280;52465;51.560;14.368;2023-07-16T08:48:16;100126.69;;;27.15;52.52
65553;BME280;52465;51.560;14.368;2023-07-16T08:50:41;100116.75;;;27.16;52.49
65553;BME280;52465;51.560;14.368;2023-07-16T08:53:07;100090.38;;;26.98;52.47
65553;BME280;52465;51.560;14.368;2023-07-16T08:55:33;100121.88;;;27.12;52.47
65553;BME280;52465;51.560;14.368;2023-07-16T08:57:59;100122.13;;;27.16;52.33
65553;BME280;52465;51.560;14.368;2023-07-16T09:00:26;100121.59;;;27.19;52.13
65553;BME280;52465;51.560;14.368;2023-07-16T09:02:53;100122.41;;;27.20;52.36
65553;BME280;52465;51.560;14.368;2023-07-16T09:05:20;100098.97;;;27.05;52.00
65553;BME280;52465;51.560;14.368;2023-07-16T09:07:45;100119.44;;;27.21;51.67
65553;BME280;52465;51.560;14.368;2023-07-16T09:10:11;100106.25;;;27.14;51.89
65553;BME280;52465;51.560;14.368;2023-07-16T09:12:42;100113.81;;;27.18;52.06
65553;BME280;52465;51.560;14.368;2023-07-16T09:15:08;100114.31;;;27.25;52.09
65553;BME280;52465;51.560;14.368;2023-07-16T09:17:34;100061.63;;;26.93;51.53
65553;BME280;52465;51.560;14.368;2023-07-16T09:20:02;100130.19;;;27.26;51.42
65553;BME280;52465;51.560;14.368;2023-07-16T09:22:29;100135.31;;;27.28;51.77
65553;BME280;52465;51.560;14.368;2023-07-16T09:24:55;100125.34;;;27.28;51.48
65553;BME280;52465;51.560;14.368;2023-07-16T09:27:20;100127.25;;;27.23;51.31
65553;BME280;52465;51.560;14.368;2023-07-16T09:29:45;100135.84;;;27.30;51.28
65553;BME280;52465;51.560;14.368;2023-07-16T09:32:11;100136.09;;;27.33;51.64
65553;BME280;52465;51.560;14.368;2023-07-16T09:34:36;100109.75;;;27.30;51.30
65553;BME280;52465;51.560;14.368;2023-07-16T09:39:07;100135.28;;;27.38;51.08
65553;BME280;52465;51.560;14.368;2023-07-16T09:41:32;100146.03;;;27.38;51.06
65553;BME280;52465;51.560;14.368;2023-07-16T09:43:58;100153.03;;;27.39;51.41
65553;BME280;52465;51.560;14.368;2023-07-16T09:46:24;100127.75;;;27.20;50.84
65553;BME280;52465;51.560;14.368;2023-07-16T09:48:49;100150.59;;;27.37;50.55
65553;BME280;52465;51.560;14.368;2023-07-16T09:51:15;100163.22;;;27.52;50.40
65553;BME280;52465;51.560;14.368;2023-07-16T09:53:42;100149.50;;;27.64;49.62
65553;BME280;52465;51.560;14.368;2023-07-16T09:58:10;100141.66;;;27.83;49.31
65553;BME280;52465;51.560;14.368;2023-07-16T10:00:37;100116.41;;;27.79;49.25
65553;BME280;52465;51.560;14.368;2023-07-16T10:03:05;100082.25;;;27.59;49.20
65553;BME280;52465;51.560;14.368;2023-07-16T10:05:35;100115.81;;;27.92;48.88
65553;BME280;52465;51.560;14.368;2023-07-16T10:08:01;100142.38;;;28.14;49.29
65553;BME280;52465;51.560;14.368;2023-07-16T10:13:12;100158.50;;;28.24;48.88
65553;BME280;52465;51.560;14.368;2023-07-16T10:15:38;100119.22;;;28.18;49.22
65553;BME280;52465;51.560;14.368;2023-07-16T10:18:03;100141.50;;;28.34;49.08
65553;BME280;52465;51.560;14.368;2023-07-16T10:20:33;100137.19;;;28.28;48.79
65553;BME280;52465;51.560;14.368;2023-07-16T10:22:59;100155.19;;;28.42;48.81
65553;BME280;52465;51.560;14.368;2023-07-16T10:26:04;100158.41;;;28.44;48.92
65553;BME280;52465;51.560;14.368;2023-07-16T10:28:30;100152.22;;;28.44;48.94
65553;BME280;52465;51.560;14.368;2023-07-16T10:30:55;100158.63;;;28.53;49.19
65553;BME280;52465;51.560;14.368;2023-07-16T10:33:21;100154.56;;;28.56;48.99
65553;BME280;52465;51.560;14.368;2023-07-16T10:35:47;100140.34;;;28.45;48.94
65553;BME280;52465;51.560;14.368;2023-07-16T10:38:12;100155.91;;;28.58;48.96
65553;BME280;52465;51.560;14.368;2023-07-16T10:40:39;100167.19;;;28.65;49.19
65553;BME280;52465;51.560;14.368;2023-07-16T10:43:06;100163.13;;;28.68;48.76
65553;BME280;52465;51.560;14.368;2023-07-16T10:45:32;100148.91;;;28.62;48.84
65553;BME280;52465;51.560;14.368;2023-07-16T10:47:58;100168.75;;;28.71;48.81
65553;BME280;52465;51.560;14.368;2023-07-16T10:50:23;100162.03;;;28.74;48.83
65553;BME280;52465;51.560;14.368;2023-07-16T10:52:51;100151.78;;;28.71;49.00
65553;BME280;52465;51.560;14.368;2023-07-16T10:55:16;100170.88;;;28.80;48.82
65553;BME280;52465;51.560;14.368;2023-07-16T10:57:41;100164.91;;;28.83;48.29
65553;BME280;52465;51.560;14.368;2023-07-16T11:00:10;100158.75;;;28.77;48.36
65553;BME280;52465;51.560;14.368;2023-07-16T11:02:39;100152.56;;;28.77;48.19
65553;BME280;52465;51.560;14.368;2023-07-16T11:05:05;100176.19;;;28.90;48.46
65553;BME280;52465;51.560;14.368;2023-07-16T11:07:31;100155.75;;;28.84;48.22
65553;BME280;52465;51.560;14.368;2023-07-16T11:09:56;100174.31;;;28.90;48.22
65553;BME280;52465;51.560;14.368;2023-07-16T11:12:23;100137.78;;;28.74;48.24
65553;BME280;52465;51.560;14.368;2023-07-16T11:14:51;100167.03;;;28.91;47.92
65553;BME280;52465;51.560;14.368;2023-07-16T11:17:17;100134.31;;;28.68;48.03
65553;BME280;52465;51.560;14.368;2023-07-16T11:19:45;100153.84;;;28.84;48.03
65553;BME280;52465;51.560;14.368;2023-07-16T11:22:11;100154.97;;;28.78;47.81
65553;BME280;52465;51.560;14.368;2023-07-16T11:24:38;100194.22;;;28.89;47.11
65553;BME280;52465;51.560;14.368;2023-07-16T11:27:05;100093.56;;;28.36;46.57
65553;BME280;52465;51.560;14.368;2023-07-16T11:29:34;100172.22;;;28.77;46.08
65553;BME280;52465;51.560;14.368;2023-07-16T11:31:59;100172.78;;;28.79;45.90
65553;BME280;52465;51.560;14.368;2023-07-16T11:34:26;100166.31;;;28.75;45.82
65553;BME280;52465;51.560;14.368;2023-07-16T11:37:25;100167.69;;;28.67;45.16
65553;BME280;52465;51.560;14.368;2023-07-16T11:39:54;100173.59;;;28.75;45.62
65553;BME280;52465;51.560;14.368;2023-07-16T11:42:23;100159.09;;;28.65;45.00
65553;BME280;52465;51.560;14.368;2023-07-16T11:44:49;100138.94;;;28.63;45.31
65553;BME280;52465;51.560;14.368;2023-07-16T11:47:15;100163.06;;;28.73;45.49
65553;BME280;52465;51.560;14.368;2023-07-16T11:49:40;100138.34;;;28.66;45.51
65553;BME280;52465;51.560;14.368;2023-07-16T11:52:07;100135.13;;;28.64;45.26
65553;BME280;52465;51.560;14.368;2023-07-16T11:54:33;100164.69;;;28.79;45.17
65553;BME280;52465;51.560;14.368;2023-07-16T11:56:58;100165.50;;;28.80;45.79
65553;BME280;52465;51.560;14.368;2023-07-16T11:59:24;100156.34;;;28.76;45.92
65553;BME280;52465;51.560;14.368;2023-07-16T12:01:49;100159.00;;;28.81;45.46
65553;BME280;52465;51.560;14.368;2023-07-16T12:04:15;100161.72;;;28.76;45.92
65553;BME280;52465;51.560;14.368;2023-07-16T12:06:40;100170.31;;;28.83;45.54
65553;BME280;52465;51.560;14.368;2023-07-16T12:09:06;100173.81;;;28.83;45.77
65553;BME280;52465;51.560;14.368;2023-07-16T12:11:32;100160.63;;;28.82;46.05
65553;BME280;52465;51.560;14.368;2023-07-16T12:13:57;100159.53;;;28.83;45.79
65553;BME280;52465;51.560;14.368;2023-07-16T12:16:23;100153.91;;;28.79;45.98
65553;BME280;52465;51.560;14.368;2023-07-16T12:18:48;100151.75;;;28.76;46.17
65553;BME280;52465;51.560;14.368;2023-07-16T12:21:13;100156.31;;;28.81;45.97
65553;BME280;52465;51.560;14.368;2023-07-16T12:23:39;100156.31;;;28.81;45.90
65553;BME280;52465;51.560;14.368;2023-07-16T12:26:04;100143.75;;;28.66;46.03
65553;BME280;52465;51.560;14.368;2023-07-16T12:28:30;100144.78;;;28.70;46.22
65553;BME280;52465;51.560;14.368;2023-07-16T12:30:55;100162.22;;;28.83;46.45
65553;BME280;52465;51.560;14.368;2023-07-16T12:33:21;100139.66;;;28.73;46.22
65553;BME280;52465;51.560;14.368;2023-07-16T12:35:46;100119.25;;;28.62;46.31
65553;BME280;52465;51.560;14.368;2023-07-16T12:38:11;100156.00;;;28.87;46.46
65553;BME280;52465;51.560;14.368;2023-07-16T12:40:37;100139.81;;;28.87;46.67
65553;BME280;52465;51.560;14.368;2023-07-16T12:43:05;100145.22;;;28.87;46.50
65553;BME280;52465;51.560;14.368;2023-07-16T12:45:31;100156.00;;;28.87;46.13
65553;BME280;52465;51.560;14.368;2023-07-16T12:47:57;100162.19;;;28.88;46.25
65553;BME280;52465;51.560;14.368;2023-07-16T12:50:22;100154.91;;;28.88;46.42
65553;BME280;52465;51.560;14.368;2023-07-16T12:52:48;100085.19;;;28.42;46.66
65553;BME280;52465;51.560;14.368;2023-07-16T12:55:13;100160.63;;;28.82;46.82
65553;BME280;52465;51.560;14.368;2023-07-16T12:57:38;100137.97;;;28.83;46.84
65553;BME280;52465;51.560;14.368;2023-07-16T13:00:05;100156.25;;;28.91;46.72
65553;BME280;52465;51.560;14.368;2023-07-16T13:02:31;100089.41;;;28.54;46.60
65553;BME280;52465;51.560;14.368;2023-07-16T13:04:57;100107.88;;;28.70;46.74
65553;BME280;52465;51.560;14.368;2023-07-16T13:07:22;100148.72;;;28.93;46.92
65553;BME280;52465;51.560;14.368;2023-07-16T13:09:47;100152.97;;;28.99;46.63
65553;BME280;52465;51.560;14.368;2023-07-16T13:12:13;100146.53;;;28.90;46.46
65553;BME280;52465;51.560;14.368;2023-07-16T13:14:38;100164.81;;;29.03;46.77
65553;BME280;52465;51.560;14.368;2023-07-16T13:17:04;100158.63;;;29.03;46.34
65553;BME280;52465;51.560;14.368;2023-07-16T13:19:30;100121.78;;;28.83;46.60
65553;BME280;52465;51.560;14.368;2023-07-16T13:21:56;100141.94;;;28.95;47.01
65553;BME280;52465;51.560;14.368;2023-07-16T13:24:21;100167.22;;;29.05;46.54
65553;BME280;52465;51.560;14.368;2023-07-16T13:26:46;100159.94;;;29.05;46.51
65553;BME280;52465;51.560;14.368;2023-07-16T13:29:12;100163.44;;;29.06;46.66
65553;BME280;52465;51.560;14.368;2023-07-16T13:31:37;100155.63;;;29.04;46.65
65553;BME280;52465;51.560;14.368;2023-07-16T13:34:02;100173.94;;;29.07;46.56
65553;BME280;52465;51.560;14.368;2023-07-16T13:36:28;100165.56;;;29.09;46.71
65553;BME280;52465;51.560;14.368;2023-07-16T13:38:56;100132.53;;;28.88;46.68
65553;BME280;52465;51.560;14.368;2023-07-16T13:41:22;100157.78;;;29.07;46.35
65553;BME280;52465;51.560;14.368;2023-07-16T13:43:47;100119.66;;;28.85;46.44
65553;BME280;52465;51.560;14.368;2023-07-16T13:46:12;100162.28;;;29.12;46.26
65553;BME280;52465;51.560;14.368;2023-07-16T13:48:39;100161.25;;;29.13;46.24
65553;BME280;52465;51.560;14.368;2023-07-16T13:51:04;100164.22;;;29.06;46.22
65553;BME280;52465;51.560;14.368;2023-07-16T13:53:30;100158.25;;;29.14;46.10
65553;BME280;52465;51.560;14.368;2023-07-16T13:55:55;100115.06;;;28.85;46.15
65553;BME280;52465;51.560;14.368;2023-07-16T13:58:21;100167.94;;;29.15;46.34
65553;BME280;52465;51.560;14.368;2023-07-16T14:00:46;100111.06;;;28.78;46.03
65553;BME280;52465;51.560;14.368;2023-07-16T14:03:12;100157.97;;;29.16;46.21
65553;BME280;52465;51.560;14.368;2023-07-16T14:05:37;100159.06;;;29.15;46.49
65553;BME280;52465;51.560;14.368;2023-07-16T14:08:03;100136.25;;;29.02;46.27
65553;BME280;52465;51.560;14.368;2023-07-16T14:10:29;100164.44;;;29.15;45.97
65553;BME280;52465;51.560;14.368;2023-07-16T14:12:55;100174.44;;;29.14;46.20
65553;BME280;52465;51.560;14.368;2023-07-16T14:15:20;100164.19;;;29.11;45.85
65553;BME280;52465;51.560;14.368;2023-07-16T14:17:46;100172.28;;;29.11;46.08
65553;BME280;52465;51.560;14.368;2023-07-16T14:20:11;100138.44;;;28.90;46.10
65553;BME280;52465;51.560;14.368;2023-07-16T14:22:37;100166.38;;;29.09;46.31
65553;BME280;52465;51.560;14.368;2023-07-16T14:27:34;100159.72;;;29.02;46.05
65553;BME280;52465;51.560;14.368;2023-07-16T14:30:00;100168.00;;;29.05;45.84
65553;BME280;52465;51.560;14.368;2023-07-16T14:32:26;100165.31;;;29.05;46.38